Time;durP1;ratioP1;P1;durP2;ratioP2;P2;SDS_P1;SDS_P2;PMS_P1;PMS_P2;Temp;Humidity;BMP_temperature;BMP_pressure;BME280_temperature;BME280_humidity;BME280_pressure;Samples;Min_cycle;Max_cycle;Signal;HPM_P1;HPM_P2
2022/05/16 00:00:36;;;;;;;4.43;3.60;;;17.80;91.90;;;;;;5009105;28;20644;-64
2022/05/16 00:03:04;;;;;;;3.53;3.00;;;17.90;92.20;;;;;;5010214;28;20487;-64
2022/05/16 00:05:30;;;;;;;3.78;3.47;;;17.90;92.00;;;;;;5010473;28;20174;-63
2022/05/16 00:07:56;;;;;;;3.00;2.80;;;17.90;92.10;;;;;;5024295;28;20604;-64
2022/05/16 00:10:22;;;;;;;3.27;2.97;;;17.90;91.90;;;;;;5008852;28;20214;-64
2022/05/16 00:12:48;;;;;;;3.22;3.00;;;17.90;92.10;;;;;;5010109;28;20237;-64
2022/05/16 00:15:16;;;;;;;3.07;2.87;;;17.80;92.20;;;;;;5009865;28;20195;-64
2022/05/16 00:17:41;;;;;;;3.45;3.20;;;17.80;92.20;;;;;;5009913;28;20236;-64
2022/05/16 00:20:08;;;;;;;2.97;2.77;;;17.80;92.10;;;;;;5010013;28;20703;-63
2022/05/16 00:22:35;;;;;;;3.90;3.50;;;17.90;92.30;;;;;;5006615;28;20187;-64
2022/05/16 00:25:00;;;;;;;5.55;2.80;;;17.80;92.40;;;;;;5005886;28;20265;-65
2022/05/16 00:27:26;;;;;;;3.73;3.30;;;17.80;92.30;;;;;;5009119;28;20281;-64
2022/05/16 00:29:52;;;;;;;3.57;3.27;;;17.70;92.10;;;;;;5009236;28;20183;-63
2022/05/16 00:32:18;;;;;;;3.17;2.97;;;17.60;92.10;;;;;;5007512;28;20183;-63
2022/05/16 00:34:44;;;;;;;5.03;3.17;;;18.00;92.30;;;;;;5009986;28;20187;-62
2022/05/16 00:37:09;;;;;;;5.27;3.40;;;17.40;92.20;;;;;;5009426;28;20218;-65
2022/05/16 00:39:35;;;;;;;4.20;3.00;;;17.60;92.70;;;;;;5012082;28;20190;-64
2022/05/16 00:42:01;;;;;;;3.23;3.00;;;17.30;92.70;;;;;;5012577;28;20183;-64
2022/05/16 00:44:28;;;;;;;3.20;2.90;;;17.30;92.70;;;;;;5011194;28;20444;-65
2022/05/16 00:46:53;;;;;;;3.45;2.90;;;17.20;92.90;;;;;;5013636;28;20285;-65
2022/05/16 00:49:43;;;;;;;3.53;2.90;;;17.10;93.30;;;;;;5012980;28;20591;-64
2022/05/16 00:52:21;;;;;;;3.70;3.20;;;17.10;93.50;;;;;;5013394;28;20660;-64
2022/05/16 00:55:08;;;;;;;3.65;3.20;;;17.10;93.90;;;;;;5012703;28;20191;-64
2022/05/16 00:57:42;;;;;;;3.15;2.95;;;17.10;93.80;;;;;;5014016;28;20215;-65
2022/05/16 01:00:13;;;;;;;3.38;2.90;;;17.10;93.70;;;;;;5012945;28;20280;-64
2022/05/16 01:05:27;;;;;;;3.30;3.00;;;17.10;93.60;;;;;;5013358;28;20229;-63
2022/05/16 01:07:57;;;;;;;3.10;2.80;;;17.20;93.60;;;;;;5012674;28;20198;-63
2022/05/16 01:10:23;;;;;;;3.10;2.90;;;17.20;93.50;;;;;;5013058;28;20193;-63
2022/05/16 01:12:51;;;;;;;3.23;2.70;;;17.10;93.70;;;;;;5013215;28;20190;-63
2022/05/16 01:15:26;;;;;;;5.22;2.70;;;17.10;94.20;;;;;;5012539;28;20270;-64
2022/05/16 01:17:52;;;;;;;3.78;2.70;;;17.10;94.10;;;;;;5013177;28;20218;-64
2022/05/16 01:20:18;;;;;;;5.27;3.00;;;17.10;94.50;;;;;;5011452;28;20568;-63
2022/05/16 01:23:02;;;;;;;3.22;2.92;;;17.10;94.10;;;;;;5012423;28;20598;-63
2022/05/16 01:25:29;;;;;;;3.00;2.80;;;17.10;94.40;;;;;;5010063;28;20831;-63
2022/05/16 01:28:04;;;;;;;3.40;3.20;;;16.80;94.60;;;;;;5012702;28;20222;-63
2022/05/16 01:30:35;;;;;;;3.40;3.00;;;16.90;94.70;;;;;;5011649;28;20287;-63
2022/05/16 01:33:00;;;;;;;2.90;2.70;;;16.90;94.80;;;;;;5012825;28;20663;-63
2022/05/16 01:35:29;;;;;;;3.50;3.20;;;16.90;95.10;;;;;;5011707;28;20194;-65
2022/05/16 01:40:40;;;;;;;3.85;3.08;;;16.60;95.20;;;;;;5012425;28;20209;-64
2022/05/16 01:43:06;;;;;;;6.03;3.00;;;16.70;95.40;;;;;;5012272;28;20194;-65
2022/05/16 01:45:33;;;;;;;4.00;3.03;;;16.30;95.60;;;;;;5011745;28;20266;-65
2022/05/16 01:47:59;;;;;;;3.33;3.03;;;16.70;95.80;;;;;;5010889;28;20242;-64
2022/05/16 01:50:25;;;;;;;4.60;3.07;;;16.50;95.50;;;;;;5026244;28;20651;-65
2022/05/16 01:52:50;;;;;;;2.88;2.67;;;16.50;95.60;;;;;;4997718;28;20532;-64
2022/05/16 01:55:17;;;;;;;3.37;2.70;;;16.50;95.80;;;;;;5012409;28;20287;-64
2022/05/16 01:57:43;;;;;;;3.17;2.90;;;16.40;96.10;;;;;;5012646;28;20288;-65
2022/05/16 02:00:11;;;;;;;4.70;3.13;;;16.40;95.90;;;;;;5002140;28;20712;-65
2022/05/16 02:02:41;;;;;;;3.13;2.70;;;16.60;96.20;;;;;;4997942;28;20247;-65
2022/05/16 02:05:07;;;;;;;4.45;2.85;;;16.70;96.20;;;;;;5012233;28;20202;-65
2022/05/16 02:07:33;;;;;;;3.50;3.20;;;16.50;96.30;;;;;;5012044;28;20218;-64
2022/05/16 02:09:59;;;;;;;3.20;2.90;;;16.50;95.80;;;;;;5011263;28;20574;-64
2022/05/16 02:12:25;;;;;;;3.13;2.90;;;16.40;95.80;;;;;;5012399;28;20199;-64
2022/05/16 02:14:50;;;;;;;3.73;3.13;;;16.30;95.70;;;;;;5011150;28;20457;-64
2022/05/16 02:17:16;;;;;;;3.00;2.80;;;16.60;95.80;;;;;;4999357;28;20303;-64
2022/05/16 02:19:42;;;;;;;3.00;2.80;;;16.50;96.10;;;;;;5010923;28;20179;-64
2022/05/16 02:24:51;;;;;;;3.20;3.00;;;16.50;95.70;;;;;;5000417;28;20626;-66
2022/05/16 02:27:17;;;;;;;3.50;2.90;;;16.60;95.60;;;;;;5011714;28;20697;-66
2022/05/16 02:29:44;;;;;;;3.97;3.57;;;16.60;95.50;;;;;;5025351;28;20190;-65
2022/05/16 02:32:11;;;;;;;3.38;3.00;;;16.70;95.60;;;;;;5011793;28;20652;-64
2022/05/16 02:34:37;;;;;;;3.60;3.30;;;16.90;95.70;;;;;;5010342;28;20286;-63
2022/05/16 02:37:05;;;;;;;3.30;2.95;;;16.70;95.80;;;;;;5011643;28;20222;-64
2022/05/16 02:39:31;;;;;;;3.58;3.28;;;16.60;95.60;;;;;;5010365;28;20333;-64
2022/05/16 02:41:57;;;;;;;2.83;2.63;;;16.70;95.50;;;;;;5011500;28;20198;-65
2022/05/16 02:44:23;;;;;;;2.80;2.60;;;16.70;95.50;;;;;;5010829;28;20179;-65
2022/05/16 02:46:48;;;;;;;3.20;3.00;;;16.80;95.10;;;;;;5010999;28;20532;-65
2022/05/16 02:49:14;;;;;;;5.07;2.90;;;16.80;94.70;;;;;;5010918;28;20186;-65
2022/05/16 02:51:39;;;;;;;4.57;3.27;;;16.80;94.50;;;;;;5011453;28;20640;-65
2022/05/16 02:54:05;;;;;;;4.80;3.43;;;16.90;94.60;;;;;;5010572;28;20695;-63
2022/05/16 02:56:32;;;;;;;3.42;2.80;;;16.80;94.60;;;;;;5010937;28;20218;-65
2022/05/16 02:58:58;;;;;;;3.35;3.05;;;16.80;94.40;;;;;;4997497;28;20196;-65
2022/05/16 03:01:24;;;;;;;3.08;2.70;;;16.90;94.40;;;;;;5009910;28;20598;-65
2022/05/16 03:03:50;;;;;;;2.90;2.70;;;17.00;94.60;;;;;;5011298;28;20266;-65
2022/05/16 03:06:17;;;;;;;2.67;2.47;;;16.60;94.50;;;;;;5010977;28;20193;-64
2022/05/16 03:08:42;;;;;;;3.28;2.97;;;16.90;94.70;;;;;;5007703;28;20233;-66
2022/05/16 03:11:08;;;;;;;3.00;2.70;;;17.00;94.70;;;;;;5009988;28;20719;-65
2022/05/16 03:13:34;;;;;;;4.30;2.70;;;16.80;94.60;;;;;;5010629;28;20241;-64
2022/05/16 03:16:00;;;;;;;3.93;3.23;;;16.80;94.50;;;;;;5009840;28;20623;-64
2022/05/16 03:18:30;;;;;;;3.35;3.13;;;17.00;94.50;;;;;;5011283;28;20446;-66
2022/05/16 03:20:57;;;;;;;3.30;3.10;;;16.90;94.30;;;;;;5010323;28;20237;-64
2022/05/16 03:23:23;;;;;;;3.03;2.83;;;17.10;94.30;;;;;;5009377;28;20233;-64
2022/05/16 03:25:49;;;;;;;3.80;3.30;;;17.00;94.10;;;;;;5010202;28;20253;-64
2022/05/16 03:28:15;;;;;;;3.30;3.10;;;17.10;94.00;;;;;;5010354;28;20211;-64
2022/05/16 03:30:41;;;;;;;3.30;3.00;;;17.10;93.90;;;;;;5004140;28;20627;-64
2022/05/16 03:33:08;;;;;;;3.35;3.05;;;17.10;93.90;;;;;;5004632;28;20174;-64
2022/05/16 03:35:34;;;;;;;3.78;2.70;;;17.40;93.90;;;;;;5009985;28;20233;-64
2022/05/16 03:38:00;;;;;;;3.40;3.10;;;17.30;93.70;;;;;;5009724;28;20218;-64
2022/05/16 03:40:45;;;;;;;3.22;3.03;;;17.30;93.70;;;;;;5008639;28;20584;-64
2022/05/16 03:43:14;;;;;;;3.20;3.00;;;17.30;93.70;;;;;;5010621;28;20566;-64
2022/05/16 03:45:41;;;;;;;3.80;3.42;;;17.40;93.70;;;;;;5009533;28;20182;-64
2022/05/16 03:48:07;;;;;;;3.22;2.90;;;17.40;93.70;;;;;;5010222;28;20278;-64
2022/05/16 03:50:34;;;;;;;3.08;2.78;;;17.40;93.80;;;;;;5007019;28;20207;-64
2022/05/16 03:53:00;;;;;;;3.75;3.45;;;17.40;93.70;;;;;;5009343;28;20182;-64
2022/05/16 03:55:28;;;;;;;3.30;3.00;;;17.40;93.90;;;;;;5010580;28;20269;-64
2022/05/16 03:57:54;;;;;;;5.30;3.55;;;17.40;94.20;;;;;;5009830;28;20290;-64
2022/05/16 04:00:21;;;;;;;5.13;3.60;;;17.40;94.20;;;;;;5008741;28;20214;-64
2022/05/16 04:02:47;;;;;;;5.07;3.05;;;17.50;94.20;;;;;;5010928;28;20837;-64
2022/05/16 04:05:18;;;;;;;3.40;3.10;;;17.40;94.10;;;;;;5010087;28;20186;-65
2022/05/16 04:07:44;;;;;;;3.55;3.25;;;17.50;94.40;;;;;;5007427;28;20234;-64
2022/05/16 04:10:10;;;;;;;3.95;3.15;;;17.50;94.10;;;;;;5003379;28;20230;-64
2022/05/16 04:12:36;;;;;;;4.07;3.27;;;17.50;94.10;;;;;;5011777;28;20215;-64
2022/05/16 04:15:02;;;;;;;3.60;3.30;;;17.50;94.10;;;;;;5013417;28;20193;-65
2022/05/16 04:17:28;;;;;;;2.75;2.55;;;17.50;94.20;;;;;;5011125;28;20218;-65
2022/05/16 04:19:54;;;;;;;3.73;3.33;;;17.60;94.30;;;;;;5027355;28;20651;-66
2022/05/16 04:22:19;;;;;;;3.50;3.20;;;17.50;94.60;;;;;;5014217;28;20614;-64
2022/05/16 04:24:45;;;;;;;3.40;3.10;;;17.50;95.10;;;;;;5010184;28;20187;-64
2022/05/16 04:27:11;;;;;;;3.60;3.30;;;17.60;95.90;;;;;;5024832;28;20897;-64
2022/05/16 04:29:36;;;;;;;3.63;2.97;;;17.60;95.60;;;;;;5012881;28;20598;-63
2022/05/16 04:32:03;;;;;;;3.70;3.40;;;17.60;95.50;;;;;;5013658;28;20672;-60
2022/05/16 04:34:30;;;;;;;5.20;3.97;;;17.70;95.60;;;;;;5008857;28;20236;-55
2022/05/16 04:36:55;;;;;;;4.35;3.22;;;17.80;95.80;;;;;;5009155;28;20217;-58
2022/05/16 04:39:21;;;;;;;3.53;3.30;;;17.90;97.20;;;;;;5012399;28;20550;-56
2022/05/16 04:44:36;;;;;;;3.70;3.40;;;17.90;97.40;;;;;;5001878;28;20209;-56
2022/05/16 04:47:03;;;;;;;4.80;3.70;;;17.90;98.40;;;;;;5006894;28;20203;-56
2022/05/16 04:49:30;;;;;;;5.00;4.10;;;17.80;98.10;;;;;;5009467;28;20194;-56
2022/05/16 04:51:56;;;;;;;3.55;3.28;;;17.80;98.50;;;;;;5010772;28;20193;-58
2022/05/16 04:54:21;;;;;;;5.20;3.30;;;17.70;98.30;;;;;;5013522;28;20198;-57
2022/05/16 04:56:47;;;;;;;4.13;3.27;;;17.80;98.70;;;;;;5007997;28;20239;-56
2022/05/16 04:59:14;;;;;;;3.47;3.17;;;17.80;99.30;;;;;;5006381;28;20202;-57
2022/05/16 05:01:41;;;;;;;4.65;3.30;;;17.80;98.90;;;;;;5009337;28;20437;-56
2022/05/16 05:04:07;;;;;;;3.80;3.50;;;17.90;98.90;;;;;;5011688;28;20214;-56
2022/05/16 05:06:34;;;;;;;3.63;3.33;;;18.00;98.80;;;;;;5008410;28;20266;-56
2022/05/16 05:08:59;;;;;;;4.00;3.72;;;18.00;98.70;;;;;;5006084;28;20550;-56
2022/05/16 05:16:53;;;;;;;4.80;4.18;;;18.00;99.20;;;;;;5007546;28;20266;-65
2022/05/16 05:19:19;;;;;;;6.17;5.57;;;18.20;99.40;;;;;;5010043;28;20186;-57
2022/05/16 05:21:45;;;;;;;4.60;4.20;;;18.20;99.70;;;;;;5012099;28;20614;-57
2022/05/16 05:24:10;;;;;;;4.97;3.90;;;18.40;99.70;;;;;;5010773;28;20278;-58
2022/05/16 05:26:36;;;;;;;4.63;4.23;;;18.40;99.10;;;;;;5012669;28;20191;-58
2022/05/16 05:29:03;;;;;;;4.25;3.95;;;18.60;99.40;;;;;;5010985;28;20183;-58
2022/05/16 05:31:29;;;;;;;3.80;3.40;;;18.70;99.20;;;;;;5012294;28;20198;-58
2022/05/16 05:33:55;;;;;;;5.90;4.27;;;18.80;98.90;;;;;;5005252;28;20389;-58
2022/05/16 05:36:21;;;;;;;5.90;4.85;;;19.00;98.70;;;;;;5007283;28;20235;-58
2022/05/16 05:38:51;;;;;;;7.47;4.15;;;19.00;98.40;;;;;;5008530;28;20292;-58
2022/05/16 05:41:19;;;;;;;5.68;4.10;;;19.00;98.30;;;;;;5008850;28;20179;-58
2022/05/16 05:43:45;;;;;;;4.20;3.90;;;19.10;98.00;;;;;;5005654;28;20197;-58
2022/05/16 05:46:11;;;;;;;5.40;4.13;;;18.70;97.80;;;;;;5013619;28;20690;-59
2022/05/16 05:48:36;;;;;;;5.80;5.03;;;19.20;98.00;;;;;;5010296;28;20466;-59
2022/05/16 05:51:03;;;;;;;5.77;5.13;;;19.20;98.10;;;;;;5009751;28;20187;-59
2022/05/16 05:53:28;;;;;;;4.30;3.90;;;19.20;98.30;;;;;;5010150;28;20441;-59
2022/05/16 05:55:54;;;;;;;3.60;3.30;;;19.20;98.30;;;;;;5011147;28;20201;-58
2022/05/16 05:58:21;;;;;;;3.60;3.20;;;19.20;97.50;;;;;;5010668;28;20203;-58
2022/05/16 06:00:46;;;;;;;4.15;3.65;;;19.30;97.70;;;;;;5009707;28;20925;-63
2022/05/16 06:03:12;;;;;;;4.00;3.60;;;19.30;97.40;;;;;;5017487;28;20219;-66
2022/05/16 06:05:38;;;;;;;4.80;3.40;;;19.30;97.50;;;;;;5007620;28;20210;-66
2022/05/16 06:08:04;;;;;;;5.20;3.80;;;19.40;97.40;;;;;;5010953;28;20222;-65
2022/05/16 06:10:30;;;;;;;4.43;4.03;;;19.50;97.00;;;;;;5010234;28;20381;-65
2022/05/16 06:12:55;;;;;;;4.47;3.70;;;19.60;96.90;;;;;;5005700;28;20540;-66
2022/05/16 06:15:22;;;;;;;3.63;3.37;;;19.60;96.80;;;;;;5005843;28;20961;-65
2022/05/16 06:17:47;;;;;;;6.32;4.18;;;19.60;96.80;;;;;;5007956;28;20264;-60
2022/05/16 06:20:14;;;;;;;4.30;3.90;;;19.70;96.90;;;;;;5007587;28;20644;-63
2022/05/16 06:22:40;;;;;;;4.80;4.38;;;19.70;96.80;;;;;;5009539;28;20178;-64
2022/05/16 06:27:56;;;;;;;4.00;3.70;;;20.00;96.50;;;;;;5003922;28;20282;-65
2022/05/16 06:30:22;;;;;;;6.13;5.10;;;20.00;96.30;;;;;;5006360;28;20614;-67
2022/05/16 06:32:49;;;;;;;5.30;4.55;;;19.70;95.80;;;;;;5007970;28;20593;-64
2022/05/16 06:35:15;;;;;;;5.32;4.82;;;20.40;96.00;;;;;;5009098;28;20187;-64
2022/05/16 06:37:41;;;;;;;4.47;4.07;;;20.40;95.70;;;;;;5009332;28;20294;-64
2022/05/16 06:40:07;;;;;;;6.70;4.67;;;20.80;95.40;;;;;;5007608;28;20266;-67
2022/05/16 06:42:33;;;;;;;3.58;3.10;;;20.90;95.20;;;;;;5005795;28;20448;-70
2022/05/16 06:44:59;;;;;;;4.53;4.13;;;21.20;93.30;;;;;;5004701;28;20278;-67
2022/05/16 06:47:24;;;;;;;4.20;3.67;;;21.40;93.00;;;;;;5010733;28;20577;-61
2022/05/16 06:49:51;;;;;;;4.20;3.80;;;21.70;92.60;;;;;;5009820;28;20245;-62
2022/05/16 06:52:17;;;;;;;4.03;3.70;;;22.00;92.50;;;;;;5010529;28;20643;-62
2022/05/16 06:54:44;;;;;;;3.30;3.00;;;22.30;91.70;;;;;;5005691;28;20445;-59
2022/05/16 06:57:10;;;;;;;4.93;3.60;;;22.60;91.30;;;;;;5009677;28;20504;-60
2022/05/16 06:59:36;;;;;;;7.27;6.57;;;22.90;90.70;;;;;;5007582;28;20500;-61
2022/05/16 07:02:03;;;;;;;4.73;3.37;;;23.40;89.60;;;;;;5020197;28;21002;-58
2022/05/16 07:04:29;;;;;;;4.80;3.73;;;24.30;87.40;;;;;;5009967;28;20443;-60
2022/05/16 07:06:54;;;;;;;3.87;3.37;;;25.40;83.10;;;;;;5007980;28;21020;-65
2022/05/16 07:09:20;;;;;;;5.50;3.70;;;26.70;78.60;;;;;;5009460;28;20405;-67
2022/05/16 07:11:45;;;;;;;4.30;3.40;;;27.40;74.80;;;;;;5008621;28;20198;-66
2022/05/16 07:14:11;;;;;;;5.87;3.63;;;28.00;71.90;;;;;;5007435;28;20198;-65
2022/05/16 07:16:38;;;;;;;5.23;3.60;;;28.20;69.70;;;;;;5008910;28;20208;-62
2022/05/16 07:19:04;;;;;;;5.23;3.67;;;28.40;68.60;;;;;;5008596;28;20187;-62
2022/05/16 07:21:30;;;;;;;4.90;3.73;;;28.80;67.30;;;;;;5004529;28;20809;-63
2022/05/16 07:23:55;;;;;;;3.77;3.43;;;28.90;63.70;;;;;;5004473;28;20194;-64
2022/05/16 07:29:05;;;;;;;4.70;3.90;;;30.50;61.30;;;;;;5001364;28;20271;-65
2022/05/16 07:31:31;;;;;;;7.03;3.70;;;30.60;60.10;;;;;;5007866;28;20869;-64
2022/05/16 07:33:58;;;;;;;4.43;4.03;;;30.00;61.40;;;;;;5020306;28;20202;-68
2022/05/16 07:36:24;;;;;;;4.30;4.00;;;29.50;63.60;;;;;;5008913;28;20220;-70
2022/05/16 07:38:50;;;;;;;5.13;4.73;;;28.90;64.10;;;;;;5008998;28;20993;-67
2022/05/16 07:41:16;;;;;;;5.50;4.23;;;28.50;66.40;;;;;;5005804;28;20461;-66
2022/05/16 07:43:42;;;;;;;4.63;4.10;;;28.10;68.00;;;;;;5006058;28;20442;-64
2022/05/16 07:46:07;;;;;;;5.30;4.17;;;27.60;68.90;;;;;;5012810;28;20183;-65
2022/05/16 07:48:34;;;;;;;5.27;4.73;;;27.10;70.40;;;;;;5006888;28;20515;-66
2022/05/16 07:51:00;;;;;;;8.00;4.90;;;26.80;71.90;;;;;;5008703;28;20190;-65
2022/05/16 07:53:26;;;;;;;5.03;4.17;;;26.50;73.10;;;;;;5007691;28;20850;-68
2022/05/16 07:55:54;;;;;;;4.67;4.20;;;26.20;74.00;;;;;;5007827;28;20460;-68
2022/05/16 07:58:25;;;;;;;4.90;4.50;;;26.10;74.60;;;;;;5005634;28;20476;-64
2022/05/16 08:00:52;;;;;;;6.93;5.00;;;26.10;76.40;;;;;;5007009;28;20451;-63
2022/05/16 08:03:20;;;;;;;8.37;4.80;;;25.90;76.50;;;;;;5006009;28;20475;-63
2022/05/16 08:05:46;;;;;;;5.33;4.80;;;25.80;80.80;;;;;;5006717;28;20538;-64
2022/05/16 08:10:59;;;;;;;5.10;4.60;;;25.20;87.90;;;;;;5009491;28;20727;-62
2022/05/16 08:13:26;;;;;;;5.70;5.20;;;24.90;87.10;;;;;;5006295;28;20538;-59
2022/05/16 08:15:52;;;;;;;6.03;5.43;;;24.90;87.90;;;;;;5002876;28;20441;-60
2022/05/16 08:18:18;;;;;;;5.37;4.97;;;24.70;88.50;;;;;;5008050;28;20469;-61
2022/05/16 08:20:44;;;;;;;9.27;5.60;;;24.60;90.40;;;;;;5008369;28;20832;-59
2022/05/16 08:23:12;;;;;;;5.70;5.20;;;24.30;91.40;;;;;;5002042;28;20434;-59
2022/05/16 08:25:38;;;;;;;5.40;4.90;;;24.10;91.00;;;;;;5008195;28;20461;-62
2022/05/16 08:28:04;;;;;;;6.23;5.63;;;23.90;91.50;;;;;;5006539;28;20518;-63
2022/05/16 08:30:29;;;;;;;6.33;5.70;;;23.70;91.50;;;;;;5007826;28;20854;-64
2022/05/16 08:32:59;;;;;;;5.77;5.23;;;23.60;92.70;;;;;;5008239;28;20190;-66
2022/05/16 08:35:25;;;;;;;6.80;5.73;;;23.60;93.50;;;;;;5007513;28;20229;-61
2022/05/16 08:40:45;;;;;;;5.20;4.70;;;23.60;93.60;;;;;;5006824;28;20206;-63
2022/05/16 08:43:31;;;;;;;10.70;5.97;;;23.60;92.30;;;;;;5009113;28;20441;-62
2022/05/16 08:46:16;;;;;;;6.70;4.80;;;24.10;92.00;;;;;;5010351;28;20498;-63
2022/05/16 08:48:49;;;;;;;6.63;5.53;;;25.10;88.20;;;;;;5011841;28;20857;-62
2022/05/16 08:51:41;;;;;;;6.00;5.50;;;25.90;87.30;;;;;;5027024;28;20796;-62
2022/05/16 08:54:49;;;;;;;7.70;4.73;;;27.40;89.00;;;;;;5001879;28;20448;-64
2022/05/16 08:57:31;;;;;;;4.77;4.20;;;29.90;73.60;;;;;;5002696;28;20554;-67
2022/05/16 09:00:05;;;;;;;5.40;5.00;;;30.60;68.40;;;;;;5006439;28;20443;-63
2022/05/16 09:02:34;;;;;;;4.57;4.17;;;30.10;71.20;;;;;;5013348;28;21004;-64
2022/05/16 09:05:19;;;;;;;5.80;5.30;;;29.80;69.00;;;;;;5013339;28;20437;-64
2022/05/16 09:07:48;;;;;;;5.10;4.60;;;29.80;68.00;;;;;;5013201;28;20485;-62
2022/05/16 09:10:36;;;;;;;5.13;4.63;;;29.50;67.90;;;;;;5012417;28;20427;-65
2022/05/16 09:13:25;;;;;;;5.43;5.00;;;29.30;68.40;;;;;;5005719;28;20439;-67
2022/05/16 09:16:26;;;;;;;5.87;5.27;;;28.70;69.40;;;;;;5008432;28;20442;-65
2022/05/16 09:19:18;;;;;;;6.77;5.27;;;28.50;73.30;;;;;;5012167;28;20463;-62
2022/05/16 09:22:30;;;;;;;5.60;4.97;;;29.40;71.10;;;;;;5011630;28;20445;-64
2022/05/16 09:25:12;;;;;;;9.10;5.17;;;30.20;63.70;;;;;;5011663;28;20465;-68
2022/05/16 09:30:28;;;;;;;7.00;4.90;;;30.40;61.70;;;;;;5009356;28;20493;-67
2022/05/16 09:33:26;;;;;;;6.03;4.93;;;30.60;61.90;;;;;;5008487;28;20438;-67
2022/05/16 09:36:08;;;;;;;5.97;5.40;;;30.50;60.10;;;;;;5011686;28;20499;-75
2022/05/16 09:38:34;;;;;;;8.80;5.40;;;30.40;60.10;;;;;;5010937;28;20461;-65
2022/05/16 09:41:00;;;;;;;5.00;4.50;;;30.30;59.40;;;;;;5011980;28;20433;-65
2022/05/16 09:43:30;;;;;;;5.03;4.63;;;30.30;58.40;;;;;;5011482;28;20200;-57
2022/05/16 09:46:20;;;;;;;8.00;5.87;;;30.00;59.30;;;;;;5010883;28;20187;-58
2022/05/16 09:48:45;;;;;;;7.30;6.70;;;29.70;60.90;;;;;;5004704;28;21170;-58
2022/05/16 09:51:11;;;;;;;6.73;6.03;;;29.20;61.40;;;;;;5011334;28;20455;-57
2022/05/16 09:53:43;;;;;;;5.70;5.30;;;28.90;62.70;;;;;;5011835;28;20594;-58
2022/05/16 09:56:29;;;;;;;6.27;5.43;;;28.60;62.30;;;;;;5011327;28;20200;-58
2022/05/16 09:59:01;;;;;;;6.00;5.40;;;28.60;64.90;;;;;;5011580;28;20475;-59
2022/05/16 10:01:44;;;;;;;6.13;4.83;;;28.50;64.90;;;;;;5011767;28;20493;-57
2022/05/16 10:04:20;;;;;;;6.20;5.10;;;29.00;63.50;;;;;;5011421;28;20434;-58
2022/05/16 10:07:01;;;;;;;4.97;4.40;;;30.80;58.70;;;;;;5012242;28;20434;-59
2022/05/16 10:09:44;;;;;;;5.27;4.77;;;32.70;55.40;;;;;;5010600;28;20490;-58
2022/05/16 10:12:14;;;;;;;5.60;5.10;;;33.60;53.80;;;;;;5007680;28;20712;-58
2022/05/16 10:14:41;;;;;;;4.67;4.20;;;33.50;51.50;;;;;;5011108;28;20433;-58
2022/05/16 10:17:10;;;;;;;6.10;5.07;;;33.70;52.30;;;;;;5010377;28;20550;-58
2022/05/16 10:19:39;;;;;;;5.67;5.17;;;32.80;52.80;;;;;;5009899;28;20992;-58
2022/05/16 10:22:11;;;;;;;7.03;5.63;;;32.10;53.80;;;;;;5011855;28;20436;-59
2022/05/16 10:24:52;;;;;;;6.70;5.50;;;31.40;54.80;;;;;;5020255;28;20443;-58
2022/05/16 10:27:34;;;;;;;6.83;6.13;;;31.00;55.90;;;;;;5011180;28;20470;-58
2022/05/16 10:30:06;;;;;;;6.60;6.00;;;30.70;56.70;;;;;;5009880;28;20532;-58
2022/05/16 10:35:31;;;;;;;6.00;5.03;;;29.80;58.90;;;;;;5001917;28;20443;-58
2022/05/16 10:38:01;;;;;;;5.50;5.00;;;29.50;59.30;;;;;;5010843;28;20483;-58
2022/05/16 10:40:33;;;;;;;5.87;5.37;;;29.10;59.80;;;;;;5010863;28;20441;-58
2022/05/16 10:43:29;;;;;;;7.80;5.30;;;28.60;61.00;;;;;;5011506;28;20429;-57
2022/05/16 10:46:06;;;;;;;7.90;4.83;;;28.10;62.60;;;;;;5010647;28;20773;-57
2022/05/16 10:48:41;;;;;;;7.07;5.10;;;27.80;63.40;;;;;;5010786;28;21029;-57
2022/05/16 10:51:09;;;;;;;4.90;4.50;;;27.70;64.60;;;;;;5010773;28;20471;-57
2022/05/16 10:53:58;;;;;;;5.83;4.10;;;27.40;65.60;;;;;;5005783;28;20539;-58
2022/05/16 10:56:47;;;;;;;5.67;3.93;;;27.00;66.10;;;;;;5007790;28;20539;-58
2022/05/16 10:59:36;;;;;;;6.67;4.43;;;26.50;67.00;;;;;;5001659;28;20544;-60
2022/05/16 11:02:19;;;;;;;4.93;4.00;;;26.40;68.20;;;;;;5002373;28;20533;-65
2022/05/16 11:05:09;;;;;;;5.57;4.27;;;26.30;68.50;;;;;;5001079;28;20437;-64
2022/05/16 11:08:00;;;;;;;6.73;3.90;;;26.20;68.90;;;;;;5008266;28;21012;-63
2022/05/16 11:10:35;;;;;;;5.30;4.47;;;26.00;69.10;;;;;;5008111;28;20894;-62
2022/05/16 11:13:19;;;;;;;4.63;4.17;;;25.90;70.80;;;;;;5010754;28;20470;-63
2022/05/16 11:16:14;;;;;;;6.43;4.10;;;25.90;71.40;;;;;;5004440;28;20447;-63
2022/05/16 11:18:58;;;;;;;3.57;3.27;;;25.60;71.30;;;;;;5005935;28;20467;-63
2022/05/16 11:21:45;;;;;;;5.10;3.60;;;25.40;72.90;;;;;;5003896;28;20441;-58
2022/05/16 11:24:29;;;;;;;4.93;3.40;;;25.30;74.40;;;;;;5008441;28;20447;-59
2022/05/16 11:27:03;;;;;;;6.33;4.40;;;25.10;75.30;;;;;;5008141;28;20466;-62
2022/05/16 11:29:41;;;;;;;8.47;4.20;;;24.90;75.80;;;;;;5008029;28;20436;-61
2022/05/16 11:32:15;;;;;;;3.30;2.93;;;24.90;77.40;;;;;;5006052;28;20437;-66
2022/05/16 11:35:02;;;;;;;4.60;3.37;;;24.50;74.80;;;;;;5005688;28;20452;-62
2022/05/16 11:37:33;;;;;;;4.87;2.43;;;24.30;75.80;;;;;;5009258;28;20528;-65
2022/05/16 11:40:05;;;;;;;4.83;2.40;;;24.30;76.40;;;;;;5005771;28;20464;-64
2022/05/16 11:43:13;;;;;;;3.20;2.20;;;24.10;76.40;;;;;;5011007;28;20442;-63
2022/05/16 11:46:17;;;;;;;3.23;2.57;;;24.00;76.60;;;;;;5006122;28;20465;-62
2022/05/16 11:49:05;;;;;;;3.60;2.30;;;23.80;76.80;;;;;;5006998;28;20473;-61
2022/05/16 11:51:34;;;;;;;4.20;3.40;;;23.60;77.50;;;;;;5004675;28;20449;-61
2022/05/16 11:54:03;;;;;;;6.17;1.90;;;23.60;77.10;;;;;;5006104;28;20476;-60
2022/05/16 12:02:47;;;;;;;2.90;1.97;;;23.20;74.20;;;;;;5000542;28;20441;-61
2022/05/16 12:05:39;;;;;;;5.27;1.90;;;23.10;74.70;;;;;;5007781;28;20436;-60
2022/05/16 12:08:25;;;;;;;2.90;2.10;;;22.90;74.90;;;;;;5008545;28;20468;-60
2022/05/16 12:11:09;;;;;;;3.20;2.10;;;22.80;77.50;;;;;;5006706;28;21075;-58
2022/05/16 12:13:39;;;;;;;5.43;1.80;;;22.60;82.80;;;;;;5009295;28;20434;-58
2022/05/16 12:16:27;;;;;;;5.53;2.60;;;22.30;88.20;;;;;;5005014;28;20491;-58
2022/05/16 12:19:18;;;;;;;6.63;2.30;;;22.10;91.10;;;;;;5008141;28;20527;-59
2022/05/16 12:21:55;;;;;;;2.95;1.92;;;21.50;94.40;;;;;;5008191;28;20187;-60
2022/05/16 12:24:31;;;;;;;4.70;2.30;;;21.20;95.50;;;;;;5007837;28;20234;-58
2022/05/16 12:27:05;;;;;;;1.83;1.73;;;21.00;96.80;;;;;;5006057;28;20213;-58
2022/05/16 12:29:53;;;;;;;3.60;1.83;;;20.70;97.30;;;;;;5010413;28;20187;-60
2022/05/16 12:32:52;;;;;;;3.83;2.30;;;20.60;98.60;;;;;;5007871;28;20539;-59
2022/05/16 12:35:29;;;;;;;3.50;2.10;;;20.40;99.90;;;;;;5011133;28;20299;-59
2022/05/16 12:37:55;;;;;;;3.92;2.75;;;20.20;99.90;;;;;;5011766;28;20292;-60
2022/05/16 12:40:38;;;;;;;4.20;2.28;;;20.00;99.90;;;;;;5013299;28;20197;-60
2022/05/16 12:43:52;;;;;;;3.00;1.98;;;19.90;99.90;;;;;;5011963;28;20210;-60
2022/05/16 12:46:42;;;;;;;6.07;2.13;;;19.80;99.90;;;;;;5004625;28;20276;-68
2022/05/16 12:49:22;;;;;;;3.55;2.42;;;19.70;99.90;;;;;;5004618;28;20241;-68
2022/05/16 12:52:05;;;;;;;4.32;3.13;;;19.50;99.90;;;;;;5008258;28;20189;-68
2022/05/16 12:55:00;;;;;;;3.40;2.70;;;19.30;99.90;;;;;;5024335;28;20183;-68
2022/05/16 12:57:50;;;;;;;2.17;1.90;;;19.50;99.90;;;;;;5006327;28;20230;-59
2022/05/16 13:00:24;;;;;;;4.55;2.15;;;19.60;99.90;;;;;;5005898;28;20191;-59
2022/05/16 13:02:59;;;;;;;2.42;2.13;;;19.70;99.90;;;;;;5007618;28;20269;-62
2022/05/16 13:05:39;;;;;;;4.60;2.63;;;19.90;99.90;;;;;;5009441;28;20187;-61
2022/05/16 13:08:20;;;;;;;4.50;2.20;;;20.20;99.90;;;;;;5009671;28;20751;-61
2022/05/16 13:11:16;;;;;;;2.88;2.45;;;20.50;99.90;;;;;;5006792;28;20194;-62
2022/05/16 13:14:06;;;;;;;2.60;2.40;;;20.90;99.90;;;;;;5010558;28;20484;-61
2022/05/16 13:16:36;;;;;;;4.60;2.47;;;21.20;99.90;;;;;;5005483;28;20207;-62
2022/05/16 13:19:11;;;;;;;5.60;2.60;;;21.40;99.90;;;;;;5008489;28;20270;-66
2022/05/16 13:21:42;;;;;;;4.75;3.15;;;21.30;99.90;;;;;;5009006;28;20954;-60
2022/05/16 13:24:13;;;;;;;2.85;1.98;;;21.30;99.90;;;;;;5011426;28;20241;-60
2022/05/16 13:29:33;;;;;;;3.13;2.63;;;21.40;99.90;;;;;;5010473;28;20202;-60
2022/05/16 13:31:59;;;;;;;2.60;2.13;;;21.60;99.90;;;;;;5008194;28;20194;-59
2022/05/16 13:34:32;;;;;;;3.73;2.83;;;21.90;99.90;;;;;;5010392;28;20429;-67
2022/05/16 13:37:00;;;;;;;4.00;2.90;;;22.10;99.90;;;;;;5008839;28;20817;-67
2022/05/16 13:39:26;;;;;;;5.93;2.50;;;22.20;99.90;;;;;;5011622;28;20437;-68
2022/05/16 13:42:00;;;;;;;3.20;2.20;;;22.30;99.90;;;;;;5009634;28;20442;-67
2022/05/16 13:44:47;;;;;;;4.50;2.70;;;22.30;99.90;;;;;;5005987;28;20442;-62
2022/05/16 13:47:18;;;;;;;3.90;2.53;;;22.60;99.90;;;;;;5007909;28;20513;-62
2022/05/16 13:49:44;;;;;;;7.40;2.40;;;22.70;99.90;;;;;;5011816;28;21009;-63
2022/05/16 13:52:25;;;;;;;7.93;2.93;;;22.80;99.90;;;;;;5009792;28;20529;-68